sensor_id;sensor_type;location;lat;lon;timestamp;temperature;humidity
3678;DHT22;1855;50.934;6.958;2023-10-31T00:00:34;11.50;99.90
3678;DHT22;1855;50.934;6.958;2023-10-31T00:03:01;11.50;99.90
3678;DHT22;1855;50.934;6.958;2023-10-31T00:05:28;11.60;99.90
3678;DHT22;1855;50.934;6.958;2023-10-31T00:07:54;11.50;99.90
3678;DHT22;1855;50.934;6.958;2023-10-31T00:10:21;11.50;99.90
3678;DHT22;1855;50.934;6.958;2023-10-31T00:12:48;11.60;99.90
3678;DHT22;1855;50.934;6.958;2023-10-31T00:15:16;11.50;99.90
3678;DHT22;1855;50.934;6.958;2023-10-31T00:17:43;11.50;99.90
3678;DHT22;1855;50.934;6.958;2023-10-31T00:20:09;11.50;99.90
3678;DHT22;1855;50.934;6.958;2023-10-31T00:22:36;11.50;99.90
3678;DHT22;1855;50.934;6.958;2023-10-31T00:25:03;11.60;99.90
3678;DHT22;1855;50.934;6.958;2023-10-31T00:27:31;11.60;99.90
3678;DHT22;1855;50.934;6.958;2023-10-31T00:29:58;11.60;99.90
3678;DHT22;1855;50.934;6.958;2023-10-31T00:32:26;11.50;99.90
3678;DHT22;1855;50.934;6.958;2023-10-31T00:34:52;11.50;99.90
3678;DHT22;1855;50.934;6.958;2023-10-31T00:37:19;11.60;99.90
3678;DHT22;1855;50.934;6.958;2023-10-31T00:39:46;11.60;99.90
3678;DHT22;1855;50.934;6.958;2023-10-31T00:42:12;11.50;99.90
3678;DHT22;1855;50.934;6.958;2023-10-31T00:44:40;11.60;99.90
3678;DHT22;1855;50.934;6.958;2023-10-31T00:47:06;11.50;99.90
3678;DHT22;1855;50.934;6.958;2023-10-31T00:49:35;11.50;99.90
3678;DHT22;1855;50.934;6.958;2023-10-31T00:52:02;11.50;99.90
3678;DHT22;1855;50.934;6.958;2023-10-31T00:54:29;11.40;99.90
3678;DHT22;1855;50.934;6.958;2023-10-31T00:56:56;11.40;99.90
3678;DHT22;1855;50.934;6.958;2023-10-31T00:59:22;11.40;99.90
3678;DHT22;1855;50.934;6.958;2023-10-31T01:01:49;11.40;99.90
3678;DHT22;1855;50.934;6.958;2023-10-31T01:04:16;11.40;99.90
3678;DHT22;1855;50.934;6.958;2023-10-31T01:06:44;11.30;99.90
3678;DHT22;1855;50.934;6.958;2023-10-31T01:09:10;11.30;99.90
3678;DHT22;1855;50.934;6.958;2023-10-31T01:11:38;11.30;99.90
3678;DHT22;1855;50.934;6.958;2023-10-31T01:14:05;11.30;99.90
3678;DHT22;1855;50.934;6.958;2023-10-31T01:16:32;11.30;99.90
3678;DHT22;1855;50.934;6.958;2023-10-31T01:18:59;11.20;99.90
3678;DHT22;1855;50.934;6.958;2023-10-31T01:21:25;11.10;99.90
3678;DHT22;1855;50.934;6.958;2023-10-31T01:23:53;11.10;99.90
3678;DHT22;1855;50.934;6.958;2023-10-31T01:26:20;10.90;99.90
3678;DHT22;1855;50.934;6.958;2023-10-31T01:28:47;10.90;99.90
3678;DHT22;1855;50.934;6.958;2023-10-31T01:31:13;10.80;99.90
3678;DHT22;1855;50.934;6.958;2023-10-31T01:33:40;10.80;99.90
3678;DHT22;1855;50.934;6.958;2023-10-31T01:36:07;10.70;99.90
3678;DHT22;1855;50.934;6.958;2023-10-31T01:38:35;10.70;99.90
3678;DHT22;1855;50.934;6.958;2023-10-31T01:41:03;10.60;99.90
3678;DHT22;1855;50.934;6.958;2023-10-31T01:43:31;10.70;99.90
3678;DHT22;1855;50.934;6.958;2023-10-31T01:45:59;10.60;99.90
3678;DHT22;1855;50.934;6.958;2023-10-31T01:48:27;10.60;99.90
3678;DHT22;1855;50.934;6.958;2023-10-31T01:50:56;10.60;99.90
3678;DHT22;1855;50.934;6.958;2023-10-31T01:53:23;10.50;99.90
3678;DHT22;1855;50.934;6.958;2023-10-31T01:55:51;10.50;99.90
3678;DHT22;1855;50.934;6.958;2023-10-31T01:58:20;10.40;99.90
3678;DHT22;1855;50.934;6.958;2023-10-31T02:00:47;10.40;99.90
3678;DHT22;1855;50.934;6.958;2023-10-31T02:03:15;10.40;99.90
3678;DHT22;1855;50.934;6.958;2023-10-31T02:05:42;10.40;99.90
3678;DHT22;1855;50.934;6.958;2023-10-31T02:08:09;10.50;99.90
3678;DHT22;1855;50.934;6.958;2023-10-31T02:10:35;10.40;99.90
3678;DHT22;1855;50.934;6.958;2023-10-31T02:13:10;10.50;99.90
3678;DHT22;1855;50.934;6.958;2023-10-31T02:15:38;10.50;99.90
3678;DHT22;1855;50.934;6.958;2023-10-31T02:18:05;10.50;99.90
3678;DHT22;1855;50.934;6.958;2023-10-31T02:20:32;10.40;99.90
3678;DHT22;1855;50.934;6.958;2023-10-31T02:23:00;10.40;99.90
3678;DHT22;1855;50.934;6.958;2023-10-31T02:25:27;10.30;99.90
3678;DHT22;1855;50.934;6.958;2023-10-31T02:27:54;10.30;99.90
3678;DHT22;1855;50.934;6.958;2023-10-31T02:30:21;10.30;99.90
3678;DHT22;1855;50.934;6.958;2023-10-31T02:32:48;10.20;99.90
3678;DHT22;1855;50.934;6.958;2023-10-31T02:35:16;10.20;99.90
3678;DHT22;1855;50.934;6.958;2023-10-31T02:37:43;10.20;99.90
3678;DHT22;1855;50.934;6.958;2023-10-31T02:40:12;10.20;99.90
3678;DHT22;1855;50.934;6.958;2023-10-31T02:42:39;10.20;99.90
3678;DHT22;1855;50.934;6.958;2023-10-31T02:45:06;10.10;99.90
3678;DHT22;1855;50.934;6.958;2023-10-31T02:47:33;10.10;99.90
3678;DHT22;1855;50.934;6.958;2023-10-31T02:50:00;10.10;99.90
3678;DHT22;1855;50.934;6.958;2023-10-31T02:52:27;10.10;99.90
3678;DHT22;1855;50.934;6.958;2023-10-31T02:54:53;10.10;99.90
3678;DHT22;1855;50.934;6.958;2023-10-31T02:57:22;10.10;99.90
3678;DHT22;1855;50.934;6.958;2023-10-31T02:59:48;10.10;99.90
3678;DHT22;1855;50.934;6.958;2023-10-31T03:02:15;10.00;99.90
3678;DHT22;1855;50.934;6.958;2023-10-31T03:04:42;10.00;99.90
3678;DHT22;1855;50.934;6.958;2023-10-31T03:07:08;10.10;99.90
3678;DHT22;1855;50.934;6.958;2023-10-31T03:09:35;10.00;99.90
3678;DHT22;1855;50.934;6.958;2023-10-31T03:12:02;10.10;99.90
3678;DHT22;1855;50.934;6.958;2023-10-31T03:14:30;10.00;99.90
3678;DHT22;1855;50.934;6.958;2023-10-31T03:16:57;10.00;99.90
3678;DHT22;1855;50.934;6.958;2023-10-31T03:19:24;10.00;99.90
3678;DHT22;1855;50.934;6.958;2023-10-31T03:21:50;10.00;99.90
3678;DHT22;1855;50.934;6.958;2023-10-31T03:24:17;10.00;99.90
3678;DHT22;1855;50.934;6.958;2023-10-31T03:26:44;9.90;99.90
3678;DHT22;1855;50.934;6.958;2023-10-31T03:29:10;9.90;99.90
3678;DHT22;1855;50.934;6.958;2023-10-31T03:31:39;10.00;99.90
3678;DHT22;1855;50.934;6.958;2023-10-31T03:34:05;10.00;99.90
3678;DHT22;1855;50.934;6.958;2023-10-31T03:36:32;10.10;99.90
3678;DHT22;1855;50.934;6.958;2023-10-31T03:38:59;10.10;99.90
3678;DHT22;1855;50.934;6.958;2023-10-31T03:41:26;10.10;99.90
3678;DHT22;1855;50.934;6.958;2023-10-31T03:43:52;10.20;99.90
3678;DHT22;1855;50.934;6.958;2023-10-31T03:46:19;10.20;99.90
3678;DHT22;1855;50.934;6.958;2023-10-31T03:48:47;10.20;99.90
3678;DHT22;1855;50.934;6.958;2023-10-31T03:51:14;10.20;99.90
3678;DHT22;1855;50.934;6.958;2023-10-31T03:53:41;10.30;99.90
3678;DHT22;1855;50.934;6.958;2023-10-31T03:56:07;10.30;99.90
3678;DHT22;1855;50.934;6.958;2023-10-31T03:58:34;10.30;99.90
3678;DHT22;1855;50.934;6.958;2023-10-31T04:01:01;10.30;99.90
3678;DHT22;1855;50.934;6.958;2023-10-31T04:03:28;10.30;99.90
3678;DHT22;1855;50.934;6.958;2023-10-31T04:05:56;10.30;99.90
3678;DHT22;1855;50.934;6.958;2023-10-31T04:08:22;10.40;99.90
3678;DHT22;1855;50.934;6.958;2023-10-31T04:10:49;10.40;99.90
3678;DHT22;1855;50.934;6.958;2023-10-31T04:13:16;10.40;99.90
3678;DHT22;1855;50.934;6.958;2023-10-31T04:15:42;10.40;99.90
3678;DHT22;1855;50.934;6.958;2023-10-31T04:18:09;10.50;99.90
3678;DHT22;1855;50.934;6.958;2023-10-31T04:20:36;10.50;99.90
3678;DHT22;1855;50.934;6.958;2023-10-31T04:23:04;10.60;99.90
3678;DHT22;1855;50.934;6.958;2023-10-31T04:25:31;10.50;99.90
3678;DHT22;1855;50.934;6.958;2023-10-31T04:27:57;10.60;99.90
3678;DHT22;1855;50.934;6.958;2023-10-31T04:30:24;10.60;99.90
3678;DHT22;1855;50.934;6.958;2023-10-31T04:32:51;10.60;99.90
3678;DHT22;1855;50.934;6.958;2023-10-31T04:35:18;10.70;99.90
3678;DHT22;1855;50.934;6.958;2023-10-31T04:37:45;10.70;99.90
3678;DHT22;1855;50.934;6.958;2023-10-31T04:40:13;10.70;99.90
3678;DHT22;1855;50.934;6.958;2023-10-31T04:42:40;10.70;99.90
3678;DHT22;1855;50.934;6.958;2023-10-31T04:45:08;10.70;99.90
3678;DHT22;1855;50.934;6.958;2023-10-31T04:47:35;10.70;99.90
3678;DHT22;1855;50.934;6.958;2023-10-31T04:50:02;10.70;99.90
3678;DHT22;1855;50.934;6.958;2023-10-31T04:52:29;10.70;99.90
3678;DHT22;1855;50.934;6.958;2023-10-31T04:54:55;10.70;99.90
3678;DHT22;1855;50.934;6.958;2023-10-31T04:57:24;10.70;99.90
3678;DHT22;1855;50.934;6.958;2023-10-31T04:59:50;10.70;99.90
3678;DHT22;1855;50.934;6.958;2023-10-31T05:02:21;10.80;99.90
3678;DHT22;1855;50.934;6.958;2023-10-31T05:04:48;10.80;99.90
3678;DHT22;1855;50.934;6.958;2023-10-31T05:07:16;10.80;99.90
3678;DHT22;1855;50.934;6.958;2023-10-31T05:09:43;10.80;99.90
3678;DHT22;1855;50.934;6.958;2023-10-31T05:12:09;10.90;99.90
3678;DHT22;1855;50.934;6.958;2023-10-31T05:14:37;10.90;99.90
3678;DHT22;1855;50.934;6.958;2023-10-31T05:17:06;10.90;99.90
3678;DHT22;1855;50.934;6.958;2023-10-31T05:19:32;10.90;99.90
3678;DHT22;1855;50.934;6.958;2023-10-31T05:21:59;10.90;99.90
3678;DHT22;1855;50.934;6.958;2023-10-31T05:24:26;10.90;99.90
3678;DHT22;1855;50.934;6.958;2023-10-31T05:26:53;10.90;99.90
3678;DHT22;1855;50.934;6.958;2023-10-31T05:29:19;10.90;99.90
3678;DHT22;1855;50.934;6.958;2023-10-31T05:31:48;10.90;99.90
3678;DHT22;1855;50.934;6.958;2023-10-31T05:34:14;10.90;99.90
3678;DHT22;1855;50.934;6.958;2023-10-31T05:36:41;10.90;99.90
3678;DHT22;1855;50.934;6.958;2023-10-31T05:39:08;11.00;99.90
3678;DHT22;1855;50.934;6.958;2023-10-31T05:41:35;11.00;99.90
3678;DHT22;1855;50.934;6.958;2023-10-31T05:44:02;10.90;99.90
3678;DHT22;1855;50.934;6.958;2023-10-31T05:46:28;10.90;99.90
3678;DHT22;1855;50.934;6.958;2023-10-31T05:48:57;10.90;99.90
3678;DHT22;1855;50.934;6.958;2023-10-31T05:51:23;10.90;99.90
3678;DHT22;1855;50.934;6.958;2023-10-31T05:53:51;10.80;99.90
3678;DHT22;1855;50.934;6.958;2023-10-31T05:56:18;10.80;99.90
3678;DHT22;1855;50.934;6.958;2023-10-31T05:58:45;10.90;99.90
3678;DHT22;1855;50.934;6.958;2023-10-31T06:01:12;10.90;99.90
3678;DHT22;1855;50.934;6.958;2023-10-31T06:03:41;10.90;99.90
3678;DHT22;1855;50.934;6.958;2023-10-31T06:06:10;10.90;99.90
3678;DHT22;1855;50.934;6.958;2023-10-31T06:08:37;10.90;99.90
3678;DHT22;1855;50.934;6.958;2023-10-31T06:11:04;10.90;99.90
3678;DHT22;1855;50.934;6.958;2023-10-31T06:13:31;10.90;99.90
3678;DHT22;1855;50.934;6.958;2023-10-31T06:15:58;10.90;99.90
3678;DHT22;1855;50.934;6.958;2023-10-31T06:18:26;11.00;99.90
3678;DHT22;1855;50.934;6.958;2023-10-31T06:20:53;11.00;99.90
3678;DHT22;1855;50.934;6.958;2023-10-31T06:23:21;11.00;99.90
3678;DHT22;1855;50.934;6.958;2023-10-31T06:25:48;11.00;99.90
3678;DHT22;1855;50.934;6.958;2023-10-31T06:28:14;11.00;99.90
3678;DHT22;1855;50.934;6.958;2023-10-31T06:30:41;11.00;99.90
3678;DHT22;1855;50.934;6.958;2023-10-31T06:33:08;11.00;99.90
3678;DHT22;1855;50.934;6.958;2023-10-31T06:35:35;11.00;99.90
3678;DHT22;1855;50.934;6.958;2023-10-31T06:38:02;11.00;99.90
3678;DHT22;1855;50.934;6.958;2023-10-31T06:40:30;11.00;99.90
3678;DHT22;1855;50.934;6.958;2023-10-31T06:42:57;10.90;99.90
3678;DHT22;1855;50.934;6.958;2023-10-31T06:45:24;10.90;99.90
3678;DHT22;1855;50.934;6.958;2023-10-31T06:47:51;10.90;99.90
3678;DHT22;1855;50.934;6.958;2023-10-31T06:50:18;10.90;99.90
3678;DHT22;1855;50.934;6.958;2023-10-31T06:52:45;10.90;99.90
3678;DHT22;1855;50.934;6.958;2023-10-31T06:55:12;10.90;99.90
3678;DHT22;1855;50.934;6.958;2023-10-31T06:57:40;10.90;99.90
3678;DHT22;1855;50.934;6.958;2023-10-31T07:00:08;11.00;99.90
3678;DHT22;1855;50.934;6.958;2023-10-31T07:02:35;11.10;99.90
3678;DHT22;1855;50.934;6.958;2023-10-31T07:05:02;11.10;99.90
3678;DHT22;1855;50.934;6.958;2023-10-31T07:07:31;11.10;99.90
3678;DHT22;1855;50.934;6.958;2023-10-31T07:09:58;11.00;99.90
3678;DHT22;1855;50.934;6.958;2023-10-31T07:12:24;11.00;99.90
3678;DHT22;1855;50.934;6.958;2023-10-31T07:14:53;11.00;99.90
3678;DHT22;1855;50.934;6.958;2023-10-31T07:17:19;11.10;99.90
3678;DHT22;1855;50.934;6.958;2023-10-31T07:19:46;11.10;99.90
3678;DHT22;1855;50.934;6.958;2023-10-31T07:22:13;11.10;99.90
3678;DHT22;1855;50.934;6.958;2023-10-31T07:24:40;11.10;99.90
3678;DHT22;1855;50.934;6.958;2023-10-31T07:27:08;11.10;99.90
3678;DHT22;1855;50.934;6.958;2023-10-31T07:29:34;11.10;99.90
3678;DHT22;1855;50.934;6.958;2023-10-31T07:32:03;11.10;99.90
3678;DHT22;1855;50.934;6.958;2023-10-31T07:34:30;11.10;99.90
3678;DHT22;1855;50.934;6.958;2023-10-31T07:36:56;11.10;99.90
3678;DHT22;1855;50.934;6.958;2023-10-31T07:39:23;11.10;99.90
3678;DHT22;1855;50.934;6.958;2023-10-31T07:41:50;11.10;99.90
3678;DHT22;1855;50.934;6.958;2023-10-31T07:44:17;11.10;99.90
3678;DHT22;1855;50.934;6.958;2023-10-31T07:46:43;11.10;99.90
3678;DHT22;1855;50.934;6.958;2023-10-31T07:49:11;11.10;99.90
3678;DHT22;1855;50.934;6.958;2023-10-31T07:51:38;11.10;99.90
3678;DHT22;1855;50.934;6.958;2023-10-31T07:54:05;11.10;99.90
3678;DHT22;1855;50.934;6.958;2023-10-31T07:56:35;11.10;99.90
3678;DHT22;1855;50.934;6.958;2023-10-31T07:59:02;11.10;99.90
3678;DHT22;1855;50.934;6.958;2023-10-31T08:01:28;11.10;99.90
3678;DHT22;1855;50.934;6.958;2023-10-31T08:03:55;11.10;99.90
3678;DHT22;1855;50.934;6.958;2023-10-31T08:06:23;11.10;99.90
3678;DHT22;1855;50.934;6.958;2023-10-31T08:08:50;11.10;99.90
3678;DHT22;1855;50.934;6.958;2023-10-31T08:11:17;11.30;99.90
3678;DHT22;1855;50.934;6.958;2023-10-31T08:13:43;11.40;99.90
3678;DHT22;1855;50.934;6.958;2023-10-31T08:16:10;11.50;99.90
3678;DHT22;1855;50.934;6.958;2023-10-31T08:18:37;11.50;99.90
3678;DHT22;1855;50.934;6.958;2023-10-31T08:21:04;11.70;99.90
3678;DHT22;1855;50.934;6.958;2023-10-31T08:23:32;11.80;99.90
3678;DHT22;1855;50.934;6.958;2023-10-31T08:26:00;12.00;99.90
3678;DHT22;1855;50.934;6.958;2023-10-31T08:28:27;12.10;99.90
3678;DHT22;1855;50.934;6.958;2023-10-31T08:30:54;12.20;99.90
3678;DHT22;1855;50.934;6.958;2023-10-31T08:33:20;12.30;99.90
3678;DHT22;1855;50.934;6.958;2023-10-31T08:35:47;12.30;99.90
3678;DHT22;1855;50.934;6.958;2023-10-31T08:38:14;12.40;99.90
3678;DHT22;1855;50.934;6.958;2023-10-31T08:40:42;12.40;99.90
3678;DHT22;1855;50.934;6.958;2023-10-31T08:43:09;12.40;99.90
3678;DHT22;1855;50.934;6.958;2023-10-31T08:45:36;12.40;99.90
3678;DHT22;1855;50.934;6.958;2023-10-31T08:48:04;12.30;99.90
3678;DHT22;1855;50.934;6.958;2023-10-31T08:50:31;12.30;99.90
3678;DHT22;1855;50.934;6.958;2023-10-31T08:52:57;12.30;99.90
3678;DHT22;1855;50.934;6.958;2023-10-31T08:55:24;12.50;99.90
3678;DHT22;1855;50.934;6.958;2023-10-31T08:57:52;12.80;99.90
3678;DHT22;1855;50.934;6.958;2023-10-31T09:00:19;13.10;99.90
3678;DHT22;1855;50.934;6.958;2023-10-31T09:02:46;13.20;99.90
3678;DHT22;1855;50.934;6.958;2023-10-31T09:05:13;13.40;99.90
3678;DHT22;1855;50.934;6.958;2023-10-31T09:07:39;13.50;99.90
3678;DHT22;1855;50.934;6.958;2023-10-31T09:10:07;13.80;99.90
3678;DHT22;1855;50.934;6.958;2023-10-31T09:12:34;14.10;99.90
3678;DHT22;1855;50.934;6.958;2023-10-31T09:15:02;14.30;99.90
3678;DHT22;1855;50.934;6.958;2023-10-31T09:17:28;14.60;99.00
3678;DHT22;1855;50.934;6.958;2023-10-31T09:19:55;14.60;98.70
3678;DHT22;1855;50.934;6.958;2023-10-31T09:22:22;14.50;97.30
3678;DHT22;1855;50.934;6.958;2023-10-31T09:24:53;14.30;98.10
3678;DHT22;1855;50.934;6.958;2023-10-31T09:27:19;14.10;98.40
3678;DHT22;1855;50.934;6.958;2023-10-31T09:29:46;14.10;98.10
3678;DHT22;1855;50.934;6.958;2023-10-31T09:32:14;14.00;98.10
3678;DHT22;1855;50.934;6.958;2023-10-31T09:34:41;13.70;97.70
3678;DHT22;1855;50.934;6.958;2023-10-31T09:37:08;13.40;98.50
3678;DHT22;1855;50.934;6.958;2023-10-31T09:39:35;13.20;99.40
3678;DHT22;1855;50.934;6.958;2023-10-31T09:42:02;13.10;99.70
3678;DHT22;1855;50.934;6.958;2023-10-31T09:44:29;13.10;99.90
3678;DHT22;1855;50.934;6.958;2023-10-31T09:46:57;13.10;99.90
3678;DHT22;1855;50.934;6.958;2023-10-31T09:49:25;13.20;99.20
3678;DHT22;1855;50.934;6.958;2023-10-31T09:51:52;13.10;99.90
3678;DHT22;1855;50.934;6.958;2023-10-31T09:54:19;13.20;98.80
3678;DHT22;1855;50.934;6.958;2023-10-31T09:56:46;13.10;99.20
3678;DHT22;1855;50.934;6.958;2023-10-31T09:59:14;13.10;98.70
3678;DHT22;1855;50.934;6.958;2023-10-31T10:01:40;13.10;99.50
3678;DHT22;1855;50.934;6.958;2023-10-31T10:04:07;13.10;99.50
3678;DHT22;1855;50.934;6.958;2023-10-31T10:06:35;13.20;99.00
3678;DHT22;1855;50.934;6.958;2023-10-31T10:09:06;13.30;98.00
3678;DHT22;1855;50.934;6.958;2023-10-31T10:11:34;13.40;98.20
3678;DHT22;1855;50.934;6.958;2023-10-31T10:14:00;13.40;98.00
3678;DHT22;1855;50.934;6.958;2023-10-31T10:16:29;13.30;97.70
3678;DHT22;1855;50.934;6.958;2023-10-31T10:18:56;13.20;97.70
3678;DHT22;1855;50.934;6.958;2023-10-31T10:21:23;13.20;98.90
3678;DHT22;1855;50.934;6.958;2023-10-31T10:23:53;13.20;98.60
3678;DHT22;1855;50.934;6.958;2023-10-31T10:26:19;13.20;97.80
3678;DHT22;1855;50.934;6.958;2023-10-31T10:28:51;13.20;98.20
3678;DHT22;1855;50.934;6.958;2023-10-31T10:31:18;13.40;98.60
3678;DHT22;1855;50.934;6.958;2023-10-31T10:33:45;13.50;96.30
3678;DHT22;1855;50.934;6.958;2023-10-31T10:36:12;13.50;95.80
3678;DHT22;1855;50.934;6.958;2023-10-31T10:38:45;13.60;95.40
3678;DHT22;1855;50.934;6.958;2023-10-31T10:41:15;13.70;95.50
3678;DHT22;1855;50.934;6.958;2023-10-31T10:43:46;13.70;94.60
3678;DHT22;1855;50.934;6.958;2023-10-31T10:46:15;13.60;94.20
3678;DHT22;1855;50.934;6.958;2023-10-31T10:48:46;13.60;94.40
3678;DHT22;1855;50.934;6.958;2023-10-31T10:51:18;13.60;93.90
3678;DHT22;1855;50.934;6.958;2023-10-31T10:53:49;13.60;93.60
3678;DHT22;1855;50.934;6.958;2023-10-31T10:56:24;13.60;94.00
3678;DHT22;1855;50.934;6.958;2023-10-31T10:58:55;13.60;94.80
3678;DHT22;1855;50.934;6.958;2023-10-31T11:01:27;13.70;94.60
3678;DHT22;1855;50.934;6.958;2023-10-31T11:03:55;13.80;93.80
3678;DHT22;1855;50.934;6.958;2023-10-31T11:06:22;13.80;93.70
3678;DHT22;1855;50.934;6.958;2023-10-31T11:08:49;13.80;93.60
3678;DHT22;1855;50.934;6.958;2023-10-31T11:11:19;13.80;93.70
3678;DHT22;1855;50.934;6.958;2023-10-31T11:13:46;13.90;94.30
3678;DHT22;1855;50.934;6.958;2023-10-31T11:16:17;14.00;94.00
3678;DHT22;1855;50.934;6.958;2023-10-31T11:18:45;14.00;93.80
3678;DHT22;1855;50.934;6.958;2023-10-31T11:21:12;14.00;94.00
3678;DHT22;1855;50.934;6.958;2023-10-31T11:23:40;14.00;93.60
3678;DHT22;1855;50.934;6.958;2023-10-31T11:28:44;14.10;93.90
3678;DHT22;1855;50.934;6.958;2023-10-31T11:31:11;14.20;94.70
3678;DHT22;1855;50.934;6.958;2023-10-31T11:33:39;14.30;93.70
3678;DHT22;1855;50.934;6.958;2023-10-31T11:36:08;14.20;93.20
3678;DHT22;1855;50.934;6.958;2023-10-31T11:38:37;14.20;92.90
3678;DHT22;1855;50.934;6.958;2023-10-31T11:41:05;14.10;92.20
3678;DHT22;1855;50.934;6.958;2023-10-31T11:43:52;14.10;92.70
3678;DHT22;1855;50.934;6.958;2023-10-31T11:46:19;14.00;93.20
3678;DHT22;1855;50.934;6.958;2023-10-31T11:48:47;14.00;93.00
3678;DHT22;1855;50.934;6.958;2023-10-31T11:51:14;14.00;93.20
3678;DHT22;1855;50.934;6.958;2023-10-31T11:53:42;14.10;93.30
3678;DHT22;1855;50.934;6.958;2023-10-31T11:56:10;14.00;92.90
3678;DHT22;1855;50.934;6.958;2023-10-31T11:58:37;14.00;93.20
3678;DHT22;1855;50.934;6.958;2023-10-31T12:01:07;14.00;93.00
3678;DHT22;1855;50.934;6.958;2023-10-31T12:03:37;14.00;93.40
3678;DHT22;1855;50.934;6.958;2023-10-31T12:06:05;14.00;93.30
3678;DHT22;1855;50.934;6.958;2023-10-31T12:08:33;14.10;93.70
3678;DHT22;1855;50.934;6.958;2023-10-31T12:11:08;14.20;92.60
3678;DHT22;1855;50.934;6.958;2023-10-31T12:13:37;14.20;92.10
3678;DHT22;1855;50.934;6.958;2023-10-31T12:16:06;14.20;92.50
3678;DHT22;1855;50.934;6.958;2023-10-31T12:18:34;14.30;92.40
3678;DHT22;1855;50.934;6.958;2023-10-31T12:21:02;14.40;92.70
3678;DHT22;1855;50.934;6.958;2023-10-31T12:23:29;14.40;92.30
3678;DHT22;1855;50.934;6.958;2023-10-31T12:25:55;14.60;91.90
3678;DHT22;1855;50.934;6.958;2023-10-31T12:28:24;14.70;91.50
3678;DHT22;1855;50.934;6.958;2023-10-31T12:30:52;14.60;91.20
3678;DHT22;1855;50.934;6.958;2023-10-31T12:33:22;14.50;91.30
3678;DHT22;1855;50.934;6.958;2023-10-31T12:35:51;14.50;91.60
3678;DHT22;1855;50.934;6.958;2023-10-31T12:38:18;14.70;91.40
3678;DHT22;1855;50.934;6.958;2023-10-31T12:40:46;15.00;92.20
3678;DHT22;1855;50.934;6.958;2023-10-31T12:43:13;15.50;90.00
3678;DHT22;1855;50.934;6.958;2023-10-31T12:45:40;15.90;89.60
3678;DHT22;1855;50.934;6.958;2023-10-31T12:48:08;16.20;84.00
3678;DHT22;1855;50.934;6.958;2023-10-31T12:50:38;16.20;82.70
3678;DHT22;1855;50.934;6.958;2023-10-31T12:53:06;16.10;82.60
3678;DHT22;1855;50.934;6.958;2023-10-31T12:55:38;16.10;85.30
3678;DHT22;1855;50.934;6.958;2023-10-31T12:58:06;16.20;86.60
3678;DHT22;1855;50.934;6.958;2023-10-31T13:00:36;16.50;81.90
3678;DHT22;1855;50.934;6.958;2023-10-31T13:03:04;16.60;81.20
3678;DHT22;1855;50.934;6.958;2023-10-31T13:05:32;16.50;80.30
3678;DHT22;1855;50.934;6.958;2023-10-31T13:08:00;16.60;78.20
3678;DHT22;1855;50.934;6.958;2023-10-31T13:10:30;16.70;76.70
3678;DHT22;1855;50.934;6.958;2023-10-31T13:12:58;16.90;77.10
3678;DHT22;1855;50.934;6.958;2023-10-31T13:15:25;17.30;73.00
3678;DHT22;1855;50.934;6.958;2023-10-31T13:17:51;17.40;72.00
3678;DHT22;1855;50.934;6.958;2023-10-31T13:20:19;17.40;72.00
3678;DHT22;1855;50.934;6.958;2023-10-31T13:22:47;17.40;71.60
3678;DHT22;1855;50.934;6.958;2023-10-31T13:25:16;17.10;72.70
3678;DHT22;1855;50.934;6.958;2023-10-31T13:27:44;16.90;74.60
3678;DHT22;1855;50.934;6.958;2023-10-31T13:30:16;16.70;75.50
3678;DHT22;1855;50.934;6.958;2023-10-31T13:32:43;16.30;76.20
3678;DHT22;1855;50.934;6.958;2023-10-31T13:35:10;15.80;79.60
3678;DHT22;1855;50.934;6.958;2023-10-31T13:37:38;15.60;83.70
3678;DHT22;1855;50.934;6.958;2023-10-31T13:40:06;15.40;86.50
3678;DHT22;1855;50.934;6.958;2023-10-31T13:42:35;15.40;88.70
3678;DHT22;1855;50.934;6.958;2023-10-31T13:45:02;15.50;86.80
3678;DHT22;1855;50.934;6.958;2023-10-31T13:47:29;15.60;86.40
3678;DHT22;1855;50.934;6.958;2023-10-31T13:49:56;15.80;80.90
3678;DHT22;1855;50.934;6.958;2023-10-31T13:52:23;15.80;81.50
3678;DHT22;1855;50.934;6.958;2023-10-31T13:54:50;15.80;80.30
3678;DHT22;1855;50.934;6.958;2023-10-31T13:57:16;15.90;80.60
3678;DHT22;1855;50.934;6.958;2023-10-31T13:59:44;16.00;79.70
3678;DHT22;1855;50.934;6.958;2023-10-31T14:02:11;16.00;79.00
3678;DHT22;1855;50.934;6.958;2023-10-31T14:04:38;16.10;82.00
3678;DHT22;1855;50.934;6.958;2023-10-31T14:07:04;16.20;78.40
3678;DHT22;1855;50.934;6.958;2023-10-31T14:09:31;16.30;79.00
3678;DHT22;1855;50.934;6.958;2023-10-31T14:11:59;16.40;76.50
3678;DHT22;1855;50.934;6.958;2023-10-31T14:14:25;16.50;77.40
3678;DHT22;1855;50.934;6.958;2023-10-31T14:16:53;16.30;76.10
3678;DHT22;1855;50.934;6.958;2023-10-31T14:19:20;16.10;79.20
3678;DHT22;1855;50.934;6.958;2023-10-31T14:21:47;16.10;80.50
3678;DHT22;1855;50.934;6.958;2023-10-31T14:24:14;16.10;81.10
3678;DHT22;1855;50.934;6.958;2023-10-31T14:26:41;16.10;82.60
3678;DHT22;1855;50.934;6.958;2023-10-31T14:29:08;16.10;80.70
3678;DHT22;1855;50.934;6.958;2023-10-31T14:31:39;16.20;79.20
3678;DHT22;1855;50.934;6.958;2023-10-31T14:34:08;16.10;80.10
3678;DHT22;1855;50.934;6.958;2023-10-31T14:36:35;16.10;80.90
3678;DHT22;1855;50.934;6.958;2023-10-31T14:39:02;16.10;81.50
3678;DHT22;1855;50.934;6.958;2023-10-31T14:41:29;15.90;79.60
3678;DHT22;1855;50.934;6.958;2023-10-31T14:43:58;15.70;81.20
3678;DHT22;1855;50.934;6.958;2023-10-31T14:46:25;15.60;82.50
3678;DHT22;1855;50.934;6.958;2023-10-31T14:48:52;15.40;82.10
3678;DHT22;1855;50.934;6.958;2023-10-31T14:51:20;15.30;83.70
3678;DHT22;1855;50.934;6.958;2023-10-31T14:53:47;15.10;84.80
3678;DHT22;1855;50.934;6.958;2023-10-31T14:56:14;15.00;84.90
3678;DHT22;1855;50.934;6.958;2023-10-31T14:58:41;14.90;86.10
3678;DHT22;1855;50.934;6.958;2023-10-31T15:01:07;14.80;86.00
3678;DHT22;1855;50.934;6.958;2023-10-31T15:03:34;14.80;87.40
3678;DHT22;1855;50.934;6.958;2023-10-31T15:06:01;14.70;87.40
3678;DHT22;1855;50.934;6.958;2023-10-31T15:08:30;14.70;87.80
3678;DHT22;1855;50.934;6.958;2023-10-31T15:10:56;14.70;87.80
3678;DHT22;1855;50.934;6.958;2023-10-31T15:13:23;14.60;88.90
3678;DHT22;1855;50.934;6.958;2023-10-31T15:15:50;14.50;88.80
3678;DHT22;1855;50.934;6.958;2023-10-31T15:18:16;14.50;89.60
3678;DHT22;1855;50.934;6.958;2023-10-31T15:20:44;14.50;90.50
3678;DHT22;1855;50.934;6.958;2023-10-31T15:23:10;14.50;90.90
3678;DHT22;1855;50.934;6.958;2023-10-31T15:25:40;14.50;91.00
3678;DHT22;1855;50.934;6.958;2023-10-31T15:28:07;14.40;91.20
3678;DHT22;1855;50.934;6.958;2023-10-31T15:30:34;14.40;91.40
3678;DHT22;1855;50.934;6.958;2023-10-31T15:33:01;14.40;91.70
3678;DHT22;1855;50.934;6.958;2023-10-31T15:35:27;14.30;92.50
3678;DHT22;1855;50.934;6.958;2023-10-31T15:37:54;14.20;92.80
3678;DHT22;1855;50.934;6.958;2023-10-31T15:40:21;14.20;92.90
3678;DHT22;1855;50.934;6.958;2023-10-31T15:42:49;14.10;93.20
3678;DHT22;1855;50.934;6.958;2023-10-31T15:45:16;14.10;93.10
3678;DHT22;1855;50.934;6.958;2023-10-31T15:47:42;14.00;93.20
3678;DHT22;1855;50.934;6.958;2023-10-31T15:50:09;14.00;93.60
3678;DHT22;1855;50.934;6.958;2023-10-31T15:52:36;14.00;93.70
3678;DHT22;1855;50.934;6.958;2023-10-31T15:55:03;13.90;94.20
3678;DHT22;1855;50.934;6.958;2023-10-31T15:57:30;13.80;94.20
3678;DHT22;1855;50.934;6.958;2023-10-31T15:59:58;13.90;94.60
3678;DHT22;1855;50.934;6.958;2023-10-31T16:02:25;13.80;95.20
3678;DHT22;1855;50.934;6.958;2023-10-31T16:04:52;13.80;99.90